Baker River @ Rumney, Nh

Baker River at Rumney
 Total Drainage Area: 143 sq. miles 
 Drainage Area Controlled by Corps Dams: 0 sq. miles (0%) 
 Warning Flow/Stage: 2,850 cfs / 5.3 feet 
 Flood Flow/Stage: 7,080 cfs / 9.8 feet 
Date Time
(Eastern)
Stage
(ft)
Flow
(cfs)
CSM
(cfs / sq. mi.)
Jun-25 12:30 am 1.91 460 3.2
Jun-24 11:30 pm 1.94 473 3.3
Jun-24 10:30 pm 1.94 473 3.3
Jun-24 09:30 pm 1.95 478 3.3
Jun-24 08:30 pm 1.96 482 3.4
Jun-24 07:30 pm 2.00 500 3.5
Jun-24 06:30 pm 2.02 509 3.6
Jun-24 05:30 pm 2.06 527 3.7
Jun-24 04:30 pm 2.08 536 3.8
Jun-24 03:30 pm 2.13 559 3.9
Jun-24 02:30 pm 2.16 572 4.0
Jun-24 01:30 pm 2.21 595 4.2
Jun-24 12:30 pm 2.25 615 4.3
Jun-24 11:30 am 2.28 630 4.4
Jun-24 10:30 am 2.35 666 4.7
Jun-24 09:30 am 2.39 687 4.8
Jun-24 08:30 am 2.45 719 5.0
Jun-24 07:30 am 2.49 741 5.2
Jun-24 06:30 am 2.54 768 5.4
Jun-24 05:30 am 2.60 800 5.6
Jun-24 04:30 am 2.65 830 5.8
Jun-24 03:30 am 2.71 865 6.1
Jun-24 02:30 am 2.72 871 6.1
Jun-24 01:30 am 2.68 847 5.9
Jun-24 12:30 am 2.59 795 5.6
Report Generated June 25, 2024 01:05 am